Latest Weather Observations for Gelantipy

IDV60801

Issued at 8:52 am EDT Friday 22 January 2021 (issued every 10 minutes, with the page automatically refreshed every 10 minutes)

About weather observations | Map of weather stations | Latest weather observations for VIC | Other Formats
Station Details ID: 084142 Name: GELANTIPY Lat: -37.22 Lon: 148.26 Height: 755.0 m
Data from the previous 72 hours. | See also: Recent months at Gelantipy
Date/Time
EDT
Temp
°C
App
Temp
°C
Dew
Point
°C
Rel
Hum
%
Delta-T
°C
Wind Press
QNH
hPa
Press
MSL
hPa
Rain since
9am
mm
Dir  Spd
km/h
Gust
km/h
Spd
kts
Gust
kts
22/08:30am 22.1 18.7 11.2 50 6.3 NNE 20 26 11 14 1010.9 1007.8 0.0
22/08:00am 19.9 15.6 10.6 55 5.2 N 24 30 13 16 1010.8 1007.7 0.0
22/07:30am 18.5 14.7 9.8 57 4.8 NNE 20 24 11 13 1010.7 1007.6 0.0
22/07:00am 16.7 12.8 8.7 59 4.3 N 19 24 10 13 1010.7 1007.6 0.0
22/06:30am 15.7 11.6 7.7 59 4.2 N 19 22 10 12 1010.7 1007.6 0.0
22/06:00am 14.6 11.3 7.9 64 3.5 NNE 15 19 8 10 1010.7 1007.6 0.0
22/05:30am 14.1 11.8 7.6 65 3.3 NNE 9 13 5 7 1010.5 1007.4 0.0
22/05:00am 14.2 10.8 7.5 64 3.4 NNE 15 19 8 10 1010.2 1007.1 0.0
22/04:30am 14.1 9.7 6.5 60 3.8 NNE 19 20 10 11 1010.1 1007.0 0.0
22/04:00am 14.0 10.3 6.4 60 3.8 NNE 15 19 8 10 1010.1 1007.0 0.0
22/03:30am 15.5 11.1 6.5 55 4.6 N 19 22 10 12 1010.3 1007.2 0.0
22/03:00am 15.3 10.4 7.1 58 4.2 NNE 22 26 12 14 1010.4 1007.3 0.0
22/02:30am 15.5 10.7 7.3 58 4.2 NNE 22 24 12 13 1010.7 1007.6 0.0
22/02:00am 15.6 10.9 5.2 50 5.1 NNE 19 22 10 12 1011.1 1008.1 0.0
22/01:30am 14.9 10.3 5.4 53 4.7 NNE 19 22 10 12 1011.4 1008.3 0.0
22/01:00am 16.2 12.0 3.6 43 6.1 N 15 17 8 9 1011.9 1008.8 0.0
22/12:30am 14.4 11.3 3.8 49 5.0 N 9 13 5 7 1012.0 1008.9 0.0
22/12:00am 14.7 12.2 4.7 51 4.9 N 7 9 4 5 1012.4 1009.4 0.0
 
Date/Time
EDT
Temp
°C
App
Temp
°C
Dew
Point
°C
Rel
Hum
%
Delta-T
°C
Wind Press
QNH
hPa
Press
MSL
hPa
Rain since
9am
mm
Dir  Spd
km/h
Gust
km/h
Spd
kts
Gust
kts
21/11:30pm 14.6 12.1 4.9 52 4.7 N 7 11 4 6 1012.8 1009.7 0.0
21/11:00pm 15.3 13.4 7.6 60 4.0 NNE 7 9 4 5 1013.3 1010.2 0.0
21/10:30pm 16.2 15.2 7.4 56 4.6 N 2 6 1 3 1013.6 1010.6 0.0
21/10:00pm 15.9 13.8 5.8 51 5.1 N 6 9 3 5 1013.6 1010.6 0.0
21/09:30pm 18.8 16.6 6.3 44 6.5 NNE 7 9 4 5 1013.5 1010.5 0.0
21/09:00pm 19.0 17.3 7.4 47 6.1 NE 6 7 3 4 1013.7 1010.7 0.0
21/08:30pm 20.2 18.3 6.9 42 7.0 SSW 6 7 3 4 1013.5 1010.5 0.0
21/08:00pm 21.7 19.3 6.8 38 7.9 SSW 9 13 5 7 1013.4 1010.4 0.0
21/07:30pm 22.1 19.5 5.9 35 8.5 SSW 9 17 5 9 1013.1 1010.0 0.0
21/07:00pm 23.7 20.8 6.5 33 9.2 S 11 20 6 11 1012.9 1009.8 0.0
21/06:30pm 24.3 21.7 7.9 35 9.0 SSE 11 20 6 11 1012.6 1009.6 0.0
21/06:00pm 24.8 21.2 8.3 35 9.1 SE 17 26 9 14 1012.5 1009.5 0.0
21/05:30pm 25.6 23.1 11.0 40 8.5 S 15 24 8 13 1012.3 1009.3 0.0
21/05:00pm 26.4 24.8 11.7 40 8.7 S 11 19 6 10 1012.5 1009.5 0.0
21/04:30pm 25.9 23.1 8.4 33 9.8 SSW 13 20 7 11 1012.8 1009.7 0.0
21/04:00pm 27.3 24.5 8.7 31 10.5 S 13 22 7 12 1013.0 1009.9 0.0
21/03:30pm 27.2 23.7 3.7 22 12.2 ESE 11 20 6 11 1013.2 1010.1 0.0
21/03:00pm 26.9 23.3 5.2 25 11.5 S 13 20 7 11 1013.7 1010.7 0.0
21/02:30pm 27.7 23.4 1.2 18 13.2 WSW 13 20 7 11 1014.0 1011.0 0.0
21/02:00pm 28.2 25.4 5.1 23 12.3 NNE 9 13 5 7 1014.5 1011.4 0.0
21/01:30pm 27.7 25.3 5.3 24 12.0 SW 7 13 4 7 1014.9 1011.9 0.0
21/01:00pm 25.8 23.5 7.4 31 10.1 ESE 9 15 5 8 1015.4 1012.4 0.0
21/12:30pm 26.2 23.6 7.7 31 10.2 SE 11 17 6 9 1015.8 1012.8 0.0
21/12:00pm 25.3 23.5 9.6 37 8.9 E 9 15 5 8 1016.2 1013.2 0.0
21/11:30am 23.5 20.9 9.5 41 7.9 ENE 13 17 7 9 1016.6 1013.6 0.0
21/11:00am 21.6 19.0 10.7 50 6.2 NNE 15 20 8 11 1017.1 1014.1 0.0
21/10:30am 19.7 16.0 9.3 51 5.7 NNE 19 24 10 13 1017.3 1014.3 0.0
21/10:00am 18.8 15.4 11.1 61 4.3 NNE 20 26 11 14 1017.6 1014.6 0.0
21/09:30am 17.4 13.7 10.3 63 3.9 NNE 20 26 11 14 1017.9 1014.9 0.0
21/09:00am 16.4 12.8 10.5 68 3.2 NNE 20 28 11 15 1018.1 1015.2 0.0
21/08:30am 15.4 12.0 11.2 76 2.3 NNE 20 26 11 14 1018.3 1015.4 0.0
21/08:00am 14.0 10.6 10.4 79 2.0 NNE 19 26 10 14 1018.5 1015.5 0.0
21/07:30am 12.7 9.5 10.1 84 1.4 NNE 17 24 9 13 1018.5 1015.5 0.0
21/07:00am 11.3 7.6 9.6 89 0.9 NNE 19 22 10 12 1018.3 1015.4 0.0
21/06:30am 9.2 5.5 8.1 93 0.6 NNE 17 20 9 11 1018.1 1015.2 0.0
21/06:00am 9.1 5.0 8.0 93 0.6 NNE 19 20 10 11 1017.8 1014.8 0.0
21/05:30am 9.8 5.9 8.6 92 0.6 NNE 19 24 10 13 1017.6 1014.6 0.0
21/05:00am 8.8 5.5 7.9 94 0.4 NNE 15 19 8 10 1017.7 1014.7 0.0
21/04:30am 8.7 5.7 7.6 93 0.5 NNE 13 17 7 9 1018.0 1015.0 0.0
21/04:00am 9.1 5.7 7.7 91 0.7 NNE 15 17 8 9 1018.1 1015.2 0.0
21/03:30am 9.3 6.8 8.1 92 0.6 NNE 11 15 6 8 1018.1 1015.2 0.0
21/03:00am 9.2 7.6 8.0 92 0.6 NNE 6 7 3 4 1018.3 1015.4 0.0
21/02:30am 9.4 6.5 8.0 91 0.7 NNE 13 15 7 8 1018.5 1015.5 0.0
21/02:00am 8.6 5.8 7.1 90 0.7 NNE 11 15 6 8 1018.8 1015.8 0.0
21/01:30am 9.6 6.9 7.2 85 1.2 N 11 13 6 7 1019.3 1016.4 0.0
21/01:00am 10.5 8.3 7.7 83 1.4 N 9 11 5 6 1019.7 1016.8 0.0
21/12:30am 10.2 8.3 7.4 83 1.4 NNE 7 9 4 5 1020.0 1017.0 0.0
21/12:00am 9.7 7.4 7.5 86 1.1 NNE 9 11 5 6 1020.2 1017.2 0.0
 
Date/Time
EDT
Temp
°C
App
Temp
°C
Dew
Point
°C
Rel
Hum
%
Delta-T
°C
Wind Press
QNH
hPa
Press
MSL
hPa
Rain since
9am
mm
Dir  Spd
km/h
Gust
km/h
Spd
kts
Gust
kts
20/11:30pm 10.4 8.4 8.5 88 1.0 NNE 9 13 5 7 1020.5 1017.6 0.0
20/11:00pm 10.6 9.0 8.9 89 0.9 NE 7 9 4 5 1020.9 1018.0 0.0
20/10:30pm 11.3 11.1 9.0 86 1.2 CALM 0 0 0 0 1021.0 1018.1 0.0
20/10:00pm 12.2 11.0 9.6 84 1.4 NE 6 6 3 3 1020.9 1018.0 0.0
20/09:30pm 12.0 10.7 9.2 83 1.5 SW 6 9 3 5 1020.9 1018.0 0.0
20/09:00pm 13.1 11.7 9.4 78 2.0 SW 7 11 4 6 1020.8 1017.9 0.0
20/08:30pm 14.8 12.9 9.0 68 3.1 SSW 9 17 5 9 1020.8 1017.9 0.0
20/08:00pm 17.1 15.7 9.5 61 4.1 SSW 7 13 4 7 1020.6 1017.7 0.0
20/07:30pm 18.2 15.5 9.0 55 5.0 S 13 19 7 10 1020.4 1017.5 0.0
20/07:00pm 19.4 16.7 9.0 51 5.7 SSW 13 22 7 12 1020.0 1017.0 0.0
20/06:30pm 20.2 17.2 7.6 44 6.7 S 13 19 7 10 1019.9 1016.9 0.0
20/06:00pm 21.2 17.9 6.3 38 7.8 SSW 13 17 7 9 1019.9 1016.9 0.0
20/05:30pm 21.5 17.8 4.6 33 8.6 SSE 13 19 7 10 1019.9 1016.9 0.0
20/05:00pm 22.3 19.1 5.3 33 8.8 S 11 19 6 10 1020.2 1017.2 0.0
20/04:30pm 22.2 19.3 6.4 36 8.3 SSE 11 20 6 11 1020.5 1017.6 0.0
20/04:00pm 22.6 20.0 6.0 34 8.7 SSW 9 17 5 9 1020.9 1018.0 0.0
20/03:30pm 21.2 17.5 4.3 33 8.5 SSE 13 20 7 11 1021.3 1018.3 0.0
20/03:00pm 21.6 18.7 4.7 33 8.6 S 9 15 5 8 1021.5 1018.5 0.0
20/02:30pm 20.5 17.3 3.3 32 8.5 SW 9 17 5 9 1021.8 1018.9 0.0
20/02:00pm 21.1 17.6 5.5 36 8.0 SE 13 24 7 13 1022.0 1019.1 0.0
20/01:30pm 19.6 16.6 4.1 36 7.7 SSE 9 17 5 9 1022.3 1019.4 0.0
20/01:00pm 19.2 15.9 -0.2 27 8.8 NW 7 13 4 7 1022.8 1019.9 0.0
20/12:30pm 18.7 15.1 0.3 29 8.4 NE 9 17 5 9 1023.1 1020.2 0.0
20/12:00pm 18.1 14.5 2.8 36 7.3 E 11 17 6 9 1023.4 1020.5 0.0
20/11:30am 16.9 13.5 3.9 42 6.3 NNE 11 19 6 10 1023.8 1020.9 0.0
20/11:00am 16.1 12.7 5.7 50 5.2 NE 13 19 7 10 1023.8 1020.9 0.0
20/10:30am 14.3 11.8 6.4 59 4.0 NNE 9 17 5 9 1024.1 1021.2 0.0
20/10:00am 13.1 9.9 6.9 66 3.1 NNE 13 20 7 11 1024.1 1021.2 0.0
20/09:30am 11.7 7.9 6.0 68 2.8 NE 15 22 8 12 1024.3 1021.4 0.0
20/09:00am 11.4 7.5 7.1 75 2.1 NNE 17 26 9 14 1024.4 1021.5 0.0
20/08:30am 10.5 7.9 6.1 74 2.1 ENE 9 13 5 7 1024.6 1021.7 0.0
20/08:00am 10.2 8.5 5.8 74 2.1 ENE 4 9 2 5 1024.5 1021.6 0.0
20/07:30am 9.0 7.5 7.0 87 1.0 NE 4 6 2 3 1024.3 1021.4 0.0
20/07:00am 6.7 5.9 6.3 97 0.2 CALM 0 4 0 2 1024.1 1021.2 0.0
20/06:30am 5.0 2.6 4.4 96 0.3 NNE 6 7 3 4 1023.9 1021.1 0.0
20/06:00am 5.1 3.9 4.5 96 0.3 CALM 0 0 0 0 1023.6 1020.7 0.0
20/05:30am 4.8 3.1 4.1 95 0.3 NNE 2 7 1 4 1023.3 1020.4 0.0
20/05:00am 5.2 3.6 4.5 95 0.3 NNE 2 7 1 4 1023.0 1020.1 0.0
20/04:30am 4.9 2.8 4.0 94 0.4 NE 4 7 2 4 1022.9 1020.0 0.0
20/04:00am 5.6 3.1 4.6 93 0.4 NNE 7 11 4 6 1022.9 1020.0 0.0
20/03:30am 5.6 4.4 4.4 92 0.5 CALM 0 6 0 3 1022.9 1020.0 0.0
20/03:00am 6.4 3.6 5.0 91 0.6 N 9 13 5 7 1022.8 1019.9 0.0
20/02:30am 7.1 4.9 5.1 87 0.9 SE 6 7 3 4 1023.3 1020.4 0.0
20/02:00am 8.4 6.3 5.7 83 1.3 SE 6 7 3 4 1023.4 1020.5 0.0
20/01:30am 8.7 7.8 6.0 83 1.3 CALM 0 0 0 0 1023.9 1021.1 0.0
20/01:00am 8.5 6.3 6.0 84 1.2 E 7 9 4 5 1023.8 1020.9 0.0
20/12:30am 8.6 6.6 6.1 84 1.2 E 6 7 3 4 1023.9 1021.1 0.0
20/12:00am 8.6 6.6 6.2 85 1.1 ESE 6 7 3 4 1023.9 1021.1 0.0
 
Date/Time
EDT
Temp
°C
App
Temp
°C
Dew
Point
°C
Rel
Hum
%
Delta-T
°C
Wind Press
QNH
hPa
Press
MSL
hPa
Rain since
9am
mm
Dir  Spd
km/h
Gust
km/h
Spd
kts
Gust
kts
19/11:30pm 8.6 6.4 6.2 85 1.2 S 7 11 4 6 1023.9 1021.1 0.0
19/11:00pm 8.6 6.0 6.2 85 1.1 S 9 11 5 6 1024.1 1021.2 0.0
19/10:30pm 8.7 6.5 6.3 85 1.2 S 7 11 4 6 1024.1 1021.2 0.0
19/10:00pm 8.8 6.6 6.4 85 1.2 S 7 13 4 7 1023.8 1020.9 0.0
19/09:30pm 8.9 5.6 6.5 85 1.2 S 13 20 7 11 1023.8 1020.9 0.0
19/09:00pm 9.2 6.0 6.8 85 1.2 S 13 19 7 10 1023.5 1020.6 0.0
19/08:30pm 9.6 6.8 6.9 83 1.3 S 11 20 6 11 1023.2 1020.3 0.0
19/08:00pm 10.1 7.3 6.8 80 1.6 S 11 24 6 13 1022.9 1020.0 0.0
19/07:30pm 10.8 6.8 6.7 76 2.0 S 17 28 9 15 1022.5 1019.6 0.0
19/07:00pm 12.4 8.0 6.7 68 2.8 S 19 32 10 17 1022.1 1019.2 0.0
19/06:30pm 13.4 9.0 6.7 64 3.4 S 19 32 10 17 1021.7 1018.8 0.0
19/06:00pm 13.8 9.4 6.4 61 3.7 S 19 32 10 17 1021.4 1018.4 0.0
19/05:30pm 14.6 10.4 5.9 56 4.3 SSW 17 33 9 18 1021.3 1018.3 0.0
19/05:00pm 15.0 10.8 5.8 54 4.6 S 17 24 9 13 1021.1 1018.2 0.0
19/04:30pm 16.6 12.9 6.1 50 5.3 SSW 15 24 8 13 1021.1 1018.2 0.0
19/04:00pm 16.1 12.2 5.4 49 5.3 SSW 15 22 8 12 1021.1 1018.2 0.0
19/03:30pm 15.7 10.8 4.1 46 5.6 SSW 19 30 10 16 1021.4 1018.4 0.0
19/03:00pm 15.8 11.2 6.3 53 4.8 WSW 20 30 11 16 1021.3 1018.3 0.0
19/02:30pm 14.7 9.7 4.4 50 5.0 SSW 20 30 11 16 1021.4 1018.4 0.0
19/02:00pm 14.8 10.0 5.6 54 4.5 SW 20 30 11 16 1021.5 1018.5 0.0
19/01:30pm 14.1 9.5 5.7 57 4.2 SW 19 33 10 18 1021.6 1018.7 0.0
19/01:00pm 12.7 8.1 3.6 54 4.2 SSW 17 28 9 15 1021.7 1018.8 0.0
19/12:30pm 13.1 8.3 4.5 56 4.1 SSW 19 30 10 16 1021.7 1018.8 0.0
19/12:00pm 12.3 7.5 4.5 59 3.7 SW 19 30 10 16 1021.8 1018.9 0.0
19/11:30am 13.4 9.3 6.3 62 3.5 S 17 30 9 16 1021.8 1018.9 0.0
19/11:00am 11.5 7.1 4.5 62 3.3 SSW 17 26 9 14 1021.6 1018.7 0.0
19/10:30am 10.2 5.6 3.7 64 3.0 SSW 17 24 9 13 1021.6 1018.7 0.0
19/10:00am 10.4 5.3 4.3 66 2.8 SW 20 30 11 16 1021.3 1018.3 0.0
19/09:30am 10.9 6.2 5.0 67 2.8 SSW 19 32 10 17 1021.1 1018.2 0.0
19/09:00am 8.7 3.6 4.3 74 2.0 WSW 20 28 11 15 1021.0 1018.1 0.0

Other formats

Comma delimited format used in spreadsheet applications
http://www.bom.gov.au/fwo/IDV60801/IDV60801.94913.axf

JavaScript Object Notation format (JSON) in row-major order
http://www.bom.gov.au/fwo/IDV60801/IDV60801.94913.json

Data quality

Most of these data are generated automatically and are frequently updated. Quality checks on data are not normally performed. It is possible for incorrect values to appear. Refer to information at About Latest Weather Observations and please check the disclaimer before using these data.